Latest Weather Observations for Wudinna Airport

IDS60801

Issued at 3:35 pm CST Sunday 31 August 2014 (issued every 30 minutes, with the page automatically refreshed every 10 minutes)

About weather observations | Map of weather stations | Latest weather observations for SA | Other Formats
Station Details ID: 018083 Name: WUDINNA AERO Lat: -33.04 Lon: 135.45 Height: 86.4 m
Data from the previous 72 hours. | See also: Recent months at Wudinna Airport
Date/Time
CST
Temp
°C
App
Temp
°C
Dew
Point
Rel
Hum
%
Delta-T
°C
Wind Press
QNH
hPa
Press
MSL
hPa
Rain
since 9 am
mm
Dir
 
Spd
km/h
Gust
km/h
Spd
kts
Gust
kts
31/03:30pm 21.0 15.2 0.2 25 9.3 WSW 20 28 11 15 1011.1 - 0.0
31/03:00pm 22.5 17.0 0.4 23 10.1 W 19 26 10 14 1010.4 1010.4 0.0
31/02:30pm 22.5 17.0 0.4 23 10.1 W 19 24 10 13 1010.6 - 0.0
31/02:00pm 23.4 18.6 0.5 22 10.5 W 15 20 8 11 1010.6 - 0.0
31/01:30pm 24.6 19.2 -1.3 18 11.6 W 17 24 9 13 1011.2 - 0.0
31/01:00pm 23.0 17.7 -0.5 21 10.6 N 17 26 9 14 1011.3 - 0.0
31/12:30pm 22.0 16.2 -0.1 23 9.9 N 20 28 11 15 1011.6 - 0.0
31/12:00pm 21.6 14.9 -1.0 22 10.0 N 24 33 13 18 1011.4 1011.4 0.0
31/11:30am 20.8 15.1 -1.1 23 9.6 NNW 19 28 10 15 1012.9 - 0.0
31/11:00am 21.3 14.0 -2.5 20 10.2 NNW 26 33 14 18 1013.5 - 0.0
31/10:30am 21.3 14.4 -2.5 20 10.2 NW 24 35 13 19 1014.2 - 0.0
31/10:00am 21.8 18.4 -0.8 22 10.0 W 7 11 4 6 1014.3 - 0.0
31/09:30am 18.7 14.2 -0.2 28 8.3 W 13 20 7 11 1014.6 - 0.0
31/09:00am 19.1 12.0 -1.4 25 8.8 N 26 35 14 19 1014.2 1014.2 0.0
31/08:30am 18.3 11.6 -1.0 27 8.3 N 24 33 13 18 1013.9 - 0.0
31/08:00am 16.7 9.9 -1.9 28 7.7 N 24 32 13 17 1014.3 - 0.0
31/07:30am 16.6 10.2 -2.0 28 7.7 N 22 33 12 18 1014.0 - 0.0
31/07:00am 15.8 9.9 -2.6 28 7.4 N 19 26 10 14 1014.0 - 0.0
31/06:30am 16.0 9.8 -3.0 27 7.6 N 20 30 11 16 1014.1 - 0.0
31/06:00am 16.7 9.3 -3.4 25 8.1 N 26 35 14 19 1013.7 1013.7 0.0
31/05:30am 17.0 9.7 -3.1 25 8.1 N 26 37 14 20 1013.4 - 0.0
31/05:00am 15.8 8.8 -3.1 27 7.6 N 24 30 13 16 1013.6 - 0.0
31/04:30am 16.4 9.0 -3.7 25 8.0 N 26 33 14 18 1013.1 - 0.0
31/04:00am 16.6 9.2 -4.0 24 8.1 N 26 33 14 18 1013.1 - 0.0
31/03:30am 16.9 9.4 -4.9 22 8.5 N 26 37 14 20 1013.2 - 0.0
31/03:00am 17.1 9.2 -4.8 22 8.6 N 28 37 15 20 1013.3 1013.3 0.0
31/02:30am 16.9 8.5 -5.5 21 8.6 N 30 39 16 21 1013.6 - 0.0
31/02:00am 16.8 9.2 -5.6 21 8.6 N 26 35 14 19 1014.1 - 0.0
31/01:30am 17.3 8.9 -5.8 20 8.9 N 30 41 16 22 1014.1 - 0.0
31/01:00am 17.0 8.2 -6.1 20 8.8 N 32 41 17 22 1013.8 - 0.0
31/12:30am 17.3 9.2 -6.5 19 9.0 N 28 39 15 21 1014.6 - 0.0
31/12:00am 16.6 9.3 -5.8 21 8.5 N 24 33 13 18 1015.0 1015.0 0.0
 
Date/Time
CST
Temp
°C
App
Temp
°C
Dew
Point
Rel
Hum
%
Delta-T
°C
Wind Press
QNH
hPa
Press
MSL
hPa
Rain
since 9 am
mm
Dir
 
Spd
km/h
Gust
km/h
Spd
kts
Gust
kts
30/11:30pm 15.4 9.1 -5.6 23 7.9 NNE 19 24 10 13 1015.6 - 0.0
30/11:00pm 13.3 7.5 -4.8 28 6.8 NNE 17 20 9 11 1015.8 - 0.0
30/10:30pm 14.0 7.8 -5.2 26 7.2 NNE 19 22 10 12 1016.1 - 0.0
30/10:00pm 14.1 8.3 -5.1 26 7.2 NNE 17 19 9 10 1016.5 - 0.0
30/09:30pm 14.7 8.9 -4.6 26 7.4 NNE 17 20 9 11 1016.7 - 0.0
30/09:00pm 13.8 8.1 -3.5 30 6.7 NNE 17 19 9 10 1017.0 1017.1 0.0
30/08:30pm 14.0 8.7 -3.3 30 6.8 NNE 15 17 8 9 1017.1 - 0.0
30/08:00pm 14.7 9.5 -2.7 30 6.9 NNE 15 19 8 10 1017.2 - 0.0
30/07:30pm 12.1 7.4 0.8 46 4.7 NNE 15 17 8 9 1017.0 - 0.0
30/07:00pm 12.3 8.4 1.0 46 4.8 NNE 11 13 6 7 1017.1 - 0.0
30/06:30pm 13.2 10.1 1.5 45 5.0 N 7 11 4 6 1017.2 - 0.0
30/06:00pm 15.5 11.2 1.3 38 6.2 N 13 17 7 9 1017.2 1017.3 0.0
30/05:30pm 18.7 14.4 0.8 30 8.0 NNE 13 15 7 8 1017.0 - 0.0
30/05:00pm 22.0 16.9 -2.0 20 10.4 NNE 15 19 8 10 1017.0 - 0.0
30/04:30pm 23.7 18.4 -3.6 16 11.7 NNE 15 20 8 11 1017.1 - 0.0
30/04:00pm 23.5 17.3 -4.6 15 11.7 N 19 24 10 13 1017.3 - 0.0
30/03:30pm 24.2 16.9 -5.9 13 12.4 N 24 33 13 18 1017.4 - 0.0
30/03:00pm 23.9 16.6 -6.2 13 12.2 N 24 37 13 20 1017.6 1017.7 0.0
30/02:30pm 24.3 16.7 -5.8 13 12.4 N 26 35 14 19 1017.8 - 0.0
30/02:00pm 25.4 17.8 -6.0 12 13.0 N 26 35 14 19 1018.1 - 0.0
30/01:30pm 25.3 18.1 -5.1 13 12.8 N 24 39 13 21 1018.7 - 0.0
30/01:00pm 24.4 16.9 -4.8 14 12.3 N 26 37 14 20 1019.4 - 0.0
30/12:30pm 24.6 16.1 -3.7 15 12.2 N 32 46 17 25 1020.0 - 0.0
30/12:00pm 23.7 14.8 -5.3 14 11.9 N 33 44 18 24 1020.4 1020.4 0.0
30/11:30am 24.1 15.7 -2.4 17 11.6 N 32 46 17 25 1020.9 - 0.0
30/11:00am 22.7 13.2 -3.6 17 11.1 N 37 50 20 27 1021.3 - 0.0
30/10:30am 22.0 13.0 -2.7 19 10.6 N 35 50 19 27 1021.8 - 0.0
30/10:21am 22.6 15.0 -2.2 19 10.8 N 28 46 15 25 1021.8 - 0.0
30/10:00am 20.8 15.1 0.6 26 9.1 N 20 26 11 14 1022.2 - 0.0
30/09:30am 19.4 14.7 0.9 29 8.3 N 15 22 8 12 1022.4 - 0.0
30/09:00am 17.5 12.5 1.1 33 7.2 N 17 20 9 11 1022.4 1022.4 0.0
30/08:30am 16.0 10.2 0.2 34 6.8 N 20 28 11 15 1022.5 - 0.0
30/08:00am 13.8 9.2 1.5 43 5.3 NE 15 19 8 10 1022.1 - 0.0
30/07:30am 11.1 6.5 1.4 51 4.1 NE 15 19 8 10 1021.9 - 0.0
30/07:00am 7.8 4.1 0.1 58 3.0 NE 9 11 5 6 1021.9 - 0.0
30/06:30am 9.4 4.6 0.3 53 3.7 NE 15 19 8 10 1021.5 - 0.0
30/06:00am 9.9 5.1 0.5 52 3.8 NE 15 19 8 10 1021.6 1021.6 0.0
30/05:30am 8.8 3.3 0.8 57 3.2 NE 19 20 10 11 1021.6 - 0.0
30/05:00am 7.0 2.0 1.1 66 2.4 NNE 17 22 9 12 1021.7 - 0.0
30/04:30am 7.0 3.4 0.7 64 2.5 NNE 9 15 5 8 1022.0 - 0.0
30/04:00am 6.5 2.9 0.6 66 2.3 NNE 9 11 5 6 1022.3 - 0.0
30/03:30am 7.7 4.5 0.7 61 2.8 NNE 7 11 4 6 1022.4 - 0.0
30/03:00am 8.5 4.9 0.7 58 3.1 NNE 9 13 5 7 1022.5 1022.5 0.0
30/02:30am 10.9 6.6 0.9 50 4.2 N 13 17 7 9 1022.8 - 0.0
30/02:00am 10.1 5.4 1.2 54 3.7 NNE 15 19 8 10 1022.8 - 0.0
30/01:30am 9.8 5.5 1.2 55 3.6 NNE 13 17 7 9 1023.0 - 0.0
30/01:00am 9.7 5.1 1.4 56 3.5 NNE 15 17 8 9 1023.1 - 0.0
30/12:30am 9.0 4.3 1.0 57 3.3 NNE 15 17 8 9 1023.1 - 0.0
30/12:00am 8.7 4.4 0.7 57 3.2 NNE 13 15 7 8 1023.3 1023.3 0.0
 
Date/Time
CST
Temp
°C
App
Temp
°C
Dew
Point
Rel
Hum
%
Delta-T
°C
Wind Press
QNH
hPa
Press
MSL
hPa
Rain
since 9 am
mm
Dir
 
Spd
km/h
Gust
km/h
Spd
kts
Gust
kts
29/11:30pm 9.2 5.2 0.4 54 3.6 NE 11 13 6 7 1023.5 - 0.0
29/11:00pm 11.1 6.3 0.5 48 4.4 NNE 15 17 8 9 1023.6 - 0.0
29/10:30pm 10.9 6.4 0.0 47 4.4 NNE 13 15 7 8 1023.7 - 0.0
29/10:00pm 11.3 6.4 -0.2 45 4.7 NNE 15 17 8 9 1023.8 - 0.0
29/09:30pm 13.7 8.8 -0.3 38 5.8 NNE 15 19 8 10 1023.8 - 0.0
29/09:00pm 15.0 9.3 -0.7 34 6.5 NNE 19 24 10 13 1023.8 1023.8 0.0
29/08:30pm 12.5 7.5 1.2 46 4.8 NNE 17 20 9 11 1023.7 - 0.0
29/08:00pm 9.9 4.9 1.5 56 3.5 NNE 17 19 9 10 1023.7 - 0.0
29/07:30pm 10.4 5.8 1.5 54 3.7 NNE 15 17 8 9 1023.6 - 0.0
29/07:00pm 11.8 7.4 2.5 53 4.0 NE 15 17 8 9 1023.4 - 0.0
29/06:30pm 12.4 8.5 3.4 54 4.0 NNE 13 15 7 8 1023.2 - 0.0
29/06:00pm 16.3 12.8 3.4 42 5.9 NNE 11 15 6 8 1023.1 1023.1 0.0
29/05:30pm 21.0 16.9 2.3 29 8.8 NNE 13 17 7 9 1023.0 - 0.0
29/05:00pm 23.2 18.5 0.9 23 10.3 NNE 15 20 8 11 1022.9 - 0.0
29/04:30pm 24.1 18.4 -0.9 19 11.3 NNE 19 28 10 15 1023.0 - 0.0
29/04:00pm 24.6 18.6 -1.3 18 11.6 NNE 20 30 11 16 1023.1 - 0.0
29/03:30pm 24.7 17.9 -2.0 17 11.9 N 24 30 13 16 1023.2 - 0.0
29/03:00pm 25.1 18.2 -0.1 19 11.6 N 26 35 14 19 1023.3 1023.3 0.0
29/02:30pm 24.8 18.5 -1.1 18 11.7 NE 22 37 12 20 1023.5 - 0.0
29/02:00pm 25.4 19.5 -0.6 18 11.9 NNE 20 32 11 17 1024.0 - 0.0
29/01:30pm 24.9 18.2 -1.0 18 11.7 NE 24 35 13 19 1024.4 - 0.0
29/01:00pm 24.5 17.4 -1.3 18 11.6 NNE 26 37 14 20 1025.0 - 0.0
29/12:30pm 24.0 16.4 -1.8 18 11.4 NE 28 39 15 21 1025.5 - 0.0
29/12:00pm 24.2 17.1 -1.6 18 11.4 NE 26 39 14 21 1026.2 1026.3 0.0
29/11:30am 23.3 16.3 -0.2 21 10.7 NNE 26 39 14 21 1026.5 - 0.0
29/11:00am 23.8 17.0 0.8 22 10.7 N 26 39 14 21 1026.7 - 0.0
29/10:30am 23.3 17.9 2.2 25 10.0 NNE 20 28 11 15 1027.0 - 0.0
29/10:00am 21.8 16.2 3.5 30 8.8 NNE 22 32 12 17 1027.3 - 0.0
29/09:30am 20.2 15.2 3.4 33 8.0 NNE 19 28 10 15 1027.5 - 0.0
29/09:00am 18.5 13.9 3.6 37 7.0 NNE 17 24 9 13 1027.6 1027.7 0.0
29/08:30am 17.2 12.6 3.5 40 6.4 NNE 17 22 9 12 1027.3 - 0.0
29/08:00am 15.2 11.5 4.3 48 5.1 NNE 13 17 7 9 1027.1 - 0.0
29/07:30am 12.4 8.2 3.6 55 3.9 NNE 15 17 8 9 1026.8 - 0.0
29/07:00am 12.2 7.8 2.9 53 4.1 NNE 15 19 8 10 1026.6 - 0.0
29/06:30am 11.8 7.6 3.6 57 3.7 NNE 15 19 8 10 1026.2 - 0.0
29/06:00am 10.1 5.5 3.6 64 2.8 NE 17 19 9 10 1025.9 1026.0 0.0
29/05:30am 9.1 5.3 3.7 69 2.4 NE 13 15 7 8 1025.9 - 0.0
29/05:00am 9.1 4.9 3.7 69 2.4 NE 15 17 8 9 1025.9 - 0.0
29/04:30am 6.9 2.9 2.8 75 1.7 NE 13 17 7 9 1026.1 - 0.0
29/04:00am 7.2 3.6 2.7 73 1.9 NE 11 15 6 8 1026.0 - 0.0
29/03:30am 6.5 3.6 2.6 76 1.6 NE 7 11 4 6 1026.1 - 0.0
29/03:00am 7.9 5.1 3.0 71 2.1 NNE 7 9 4 5 1026.1 1026.2 0.0
29/02:30am 7.8 4.3 3.3 73 1.9 NE 11 11 6 6 1026.1 - 0.0
29/02:00am 9.1 5.6 3.5 68 2.4 NE 11 13 6 7 1026.2 - 0.0
29/01:30am 9.5 6.0 3.7 67 2.5 NE 11 13 6 7 1026.4 - 0.0
29/01:00am 8.4 4.9 3.7 72 2.0 NE 11 11 6 6 1026.5 - 0.0
29/12:30am 7.5 4.4 3.4 75 1.7 NE 9 11 5 6 1026.5 - 0.0
29/12:00am 8.0 4.5 3.5 73 1.9 NE 11 13 6 7 1026.5 1026.6 0.0
 
Date/Time
CST
Temp
°C
App
Temp
°C
Dew
Point
Rel
Hum
%
Delta-T
°C
Wind Press
QNH
hPa
Press
MSL
hPa
Rain
since 9 am
mm
Dir
 
Spd
km/h
Gust
km/h
Spd
kts
Gust
kts
28/11:30pm 8.7 5.6 3.5 70 2.2 NE 9 11 5 6 1026.6 - 0.0
28/11:00pm 8.8 5.7 3.6 70 2.3 NNE 9 11 5 6 1026.6 - 0.0
28/10:30pm 9.8 6.4 3.8 66 2.6 NNE 11 13 6 7 1026.7 - 0.0
28/10:00pm 10.6 7.2 4.1 64 2.9 NNE 11 13 6 7 1026.7 - 0.0
28/09:30pm 10.4 7.0 3.9 64 2.9 NNE 11 13 6 7 1026.6 - 0.0
28/09:00pm 11.2 8.2 4.0 61 3.2 NNE 9 9 5 5 1026.5 1026.6 0.0
28/08:30pm 10.4 7.1 4.3 66 2.7 NNE 11 13 6 7 1026.2 - 0.0
28/08:00pm 10.5 7.6 4.6 67 2.7 NNE 9 11 5 6 1025.9 - 0.0
28/07:30pm 11.2 8.0 4.9 65 2.9 NE 11 13 6 7 1025.8 - 0.0
28/07:00pm 11.8 8.7 5.4 65 3.0 NNE 11 13 6 7 1025.4 - 0.0
28/06:30pm 13.9 11.2 7.2 64 3.3 NNE 11 11 6 6 1025.2 - 0.0
28/06:00pm 18.7 17.0 8.4 51 5.3 NNE 7 13 4 7 1025.0 1025.1 0.0
28/05:30pm 22.1 19.9 7.9 40 7.4 NNE 9 11 5 6 1025.0 - 0.0
28/05:00pm 22.9 21.1 7.0 36 8.2 NNE 6 9 3 5 1025.0 - 0.0
28/04:30pm 22.0 19.1 4.6 32 8.6 N 9 13 5 7 1025.0 - 0.0
28/04:00pm 25.3 21.4 1.4 21 11.4 NNE 11 22 6 12 1024.9 - 0.0

Other Formats:

Comma delimited format used in spreadsheet applications
http://www.bom.gov.au/fwo/IDS60801/IDS60801.95654.axf

JavaScript Object Notation format (JSON) in row-major order
http://www.bom.gov.au/fwo/IDS60801/IDS60801.95654.json